Terminal Aerodrome Forecast
Issued by NWS

Home | Current Version | Previous Version | Text Only | Print | Product List | Glossary On
Versions: 1 2 3 4 5 6 7 8 9 10 11 12 13 14 15 16 17 18 19 20 21 22 23 24 25 26
012
FTUS42 KJAX 232127 AAA
TAFVQQ
TAF AMD
KVQQ 232127Z 2321/2418 10007KT P6SM VCTS BKN060CB
     FM240200 00000KT P6SM SCT100 BKN250=

USA.gov is the U.S. government's official web portal to all federal, state and local government web resources and services.